Time;durP1;ratioP1;P1;durP2;ratioP2;P2;SDS_P1;SDS_P2;PMS_P1;PMS_P2;Temp;Humidity;BMP_temperature;BMP_pressure;BME280_temperature;BME280_humidity;BME280_pressure;Samples;Min_cycle;Max_cycle;Signal;HPM_P1;HPM_P2
2023/02/01 00:01:42;;;;;;;32.07;15.63;;;;;;;;;;5049645;28;20175;-48
2023/02/01 00:04:08;;;;;;;26.30;13.97;;;;;;;;;;5052538;28;20413;-49
2023/02/01 00:06:34;;;;;;;34.88;15.93;;;;;;;;;;5052562;28;20422;-49
2023/02/01 00:09:00;;;;;;;27.27;14.00;;;;;;;;;;5044738;28;20173;-49
2023/02/01 00:11:26;;;;;;;37.85;12.73;;;;;;;;;;5044323;28;20805;-48
2023/02/01 00:13:53;;;;;;;24.13;11.40;;;;;;;;;;5044799;28;20635;-48
2023/02/01 00:16:22;;;;;;;35.30;12.65;;;;;;;;;;5052084;28;20207;-46
2023/02/01 00:18:49;;;;;;;27.42;11.48;;;;;;;;;;5051117;28;20183;-46
2023/02/01 00:21:15;;;;;;;27.35;11.27;;;;;;;;;;5045565;28;20198;-46
2023/02/01 00:23:42;;;;;;;27.48;11.88;;;;;;;;;;5051958;28;20249;-48
2023/02/01 00:26:11;;;;;;;32.47;9.50;;;;;;;;;;5035787;28;20528;-48
2023/02/01 00:28:37;;;;;;;21.33;9.40;;;;;;;;;;5052418;28;20205;-46
2023/02/01 00:31:04;;;;;;;20.90;8.03;;;;;;;;;;5043547;28;20203;-46
2023/02/01 00:33:30;;;;;;;22.42;8.00;;;;;;;;;;5037407;28;20832;-49
2023/02/01 00:36:07;;;;;;;12.13;6.68;;;;;;;;;;5050945;28;20293;-46
2023/02/01 00:38:34;;;;;;;17.92;6.90;;;;;;;;;;5040489;28;20175;-46
2023/02/01 00:41:13;;;;;;;16.33;7.30;;;;;;;;;;5048424;28;20211;-46
2023/02/01 00:43:40;;;;;;;15.43;5.78;;;;;;;;;;5048263;28;20708;-48
2023/02/01 00:46:06;;;;;;;18.48;6.93;;;;;;;;;;5040659;28;20195;-49
2023/02/01 00:48:32;;;;;;;16.15;6.38;;;;;;;;;;5033425;28;20187;-48
2023/02/01 00:51:01;;;;;;;22.27;5.97;;;;;;;;;;5043740;28;20202;-48
2023/02/01 00:53:27;;;;;;;14.38;5.22;;;;;;;;;;5051623;28;20236;-47
2023/02/01 00:55:53;;;;;;;13.00;4.85;;;;;;;;;;5050246;28;20195;-45
2023/02/01 00:58:19;;;;;;;14.73;5.10;;;;;;;;;;5045754;28;20195;-47
2023/02/01 01:00:46;;;;;;;16.00;4.77;;;;;;;;;;5040907;28;20418;-47
2023/02/01 01:03:18;;;;;;;13.43;5.28;;;;;;;;;;5047309;28;20513;-47
2023/02/01 01:05:48;;;;;;;8.90;4.70;;;;;;;;;;5047969;28;20220;-48
2023/02/01 01:08:15;;;;;;;10.35;5.45;;;;;;;;;;5047590;28;20196;-48
2023/02/01 01:10:41;;;;;;;11.18;4.75;;;;;;;;;;5043065;28;20218;-48
2023/02/01 01:13:07;;;;;;;15.27;5.10;;;;;;;;;;5051461;28;20183;-49
2023/02/01 01:15:40;;;;;;;9.23;5.32;;;;;;;;;;5043043;28;20241;-48
2023/02/01 01:18:06;;;;;;;12.68;5.55;;;;;;;;;;5045864;28;20657;-49
2023/02/01 01:20:35;;;;;;;16.17;5.55;;;;;;;;;;5044131;28;20267;-48
2023/02/01 01:23:00;;;;;;;10.73;5.05;;;;;;;;;;5047724;28;20183;-45
2023/02/01 01:25:26;;;;;;;18.20;5.60;;;;;;;;;;5046137;28;20259;-45
2023/02/01 01:27:52;;;;;;;16.83;5.73;;;;;;;;;;5042834;28;20456;-46
2023/02/01 01:30:18;;;;;;;13.63;5.67;;;;;;;;;;5045078;28;20448;-45
2023/02/01 01:32:44;;;;;;;19.93;5.10;;;;;;;;;;5044395;28;20413;-45
2023/02/01 01:35:11;;;;;;;17.48;5.40;;;;;;;;;;5042930;28;20539;-45
2023/02/01 01:37:37;;;;;;;12.85;4.90;;;;;;;;;;5050712;28;20214;-45
2023/02/01 01:40:03;;;;;;;20.73;6.20;;;;;;;;;;5047734;28;20268;-45
2023/02/01 01:42:29;;;;;;;15.63;5.53;;;;;;;;;;5046397;28;20423;-45
2023/02/01 01:45:00;;;;;;;11.03;5.10;;;;;;;;;;5048552;28;20179;-45
2023/02/01 01:47:27;;;;;;;18.33;6.63;;;;;;;;;;5045872;28;20770;-45
2023/02/01 01:49:53;;;;;;;19.75;6.70;;;;;;;;;;5042774;28;20201;-45
2023/02/01 01:52:19;;;;;;;17.85;6.53;;;;;;;;;;5051703;28;20650;-45
2023/02/01 01:54:46;;;;;;;13.65;6.30;;;;;;;;;;5047899;28;20203;-45
2023/02/01 01:57:16;;;;;;;19.33;7.30;;;;;;;;;;5047084;28;20191;-45
2023/02/01 01:59:43;;;;;;;17.63;6.82;;;;;;;;;;5046858;28;20179;-45
2023/02/01 02:02:10;;;;;;;9.68;5.63;;;;;;;;;;5054540;28;20178;-47
2023/02/01 02:04:36;;;;;;;9.82;6.28;;;;;;;;;;5053967;28;20713;-44
2023/02/01 02:07:08;;;;;;;15.57;6.32;;;;;;;;;;5045461;28;20309;-44
2023/02/01 02:09:34;;;;;;;18.88;6.75;;;;;;;;;;5046396;28;20169;-45
2023/02/01 02:12:00;;;;;;;22.77;7.43;;;;;;;;;;5045994;28;20250;-45
2023/02/01 02:14:27;;;;;;;14.17;7.00;;;;;;;;;;5045944;28;20413;-45
2023/02/01 02:16:55;;;;;;;11.52;6.45;;;;;;;;;;5046349;28;20441;-45
2023/02/01 02:19:40;;;;;;;13.05;5.80;;;;;;;;;;5048227;28;20191;-44
2023/02/01 02:22:25;;;;;;;16.02;6.60;;;;;;;;;;5052824;28;20194;-47
2023/02/01 02:25:10;;;;;;;15.52;5.88;;;;;;;;;;5045781;28;20222;-46
2023/02/01 02:27:39;;;;;;;16.35;7.13;;;;;;;;;;5052665;28;20549;-46
2023/02/01 02:30:29;;;;;;;15.90;6.70;;;;;;;;;;5042575;28;20291;-46
2023/02/01 02:33:06;;;;;;;7.30;4.93;;;;;;;;;;5051081;28;20179;-46
2023/02/01 02:35:41;;;;;;;22.52;6.45;;;;;;;;;;5049798;28;20201;-45
2023/02/01 02:38:37;;;;;;;16.65;6.47;;;;;;;;;;5045871;28;20175;-46
2023/02/01 02:49:38;;;;;;;12.07;5.60;;;;;;;;;;5034517;28;20285;-46
2023/02/01 02:55:02;;;;;;;19.05;4.72;;;;;;;;;;5054427;28;20240;-46
2023/02/01 03:05:52;;;;;;;9.10;4.30;;;;;;;;;;5053461;28;20201;-46
2023/02/01 03:08:19;;;;;;;10.10;4.30;;;;;;;;;;5054139;28;20669;-47
2023/02/01 03:10:45;;;;;;;15.18;4.75;;;;;;;;;;5053967;28;20207;-46
2023/02/01 03:13:13;;;;;;;13.00;3.37;;;;;;;;;;5053645;28;20673;-47
2023/02/01 03:15:51;;;;;;;12.63;5.07;;;;;;;;;;5053612;28;20426;-48
2023/02/01 03:18:23;;;;;;;14.07;3.92;;;;;;;;;;5052902;28;20171;-46
2023/02/01 03:20:50;;;;;;;13.80;4.43;;;;;;;;;;5053796;28;20800;-47
2023/02/01 03:23:18;;;;;;;15.32;5.57;;;;;;;;;;5053644;28;20191;-46
2023/02/01 03:25:44;;;;;;;8.68;3.88;;;;;;;;;;5053578;28;20191;-46
2023/02/01 03:28:10;;;;;;;10.57;3.60;;;;;;;;;;5053723;28;20589;-46
2023/02/01 03:30:38;;;;;;;17.15;4.05;;;;;;;;;;5053702;28;20256;-47
2023/02/01 03:33:13;;;;;;;10.82;4.43;;;;;;;;;;5053806;28;20254;-48
2023/02/01 03:35:49;;;;;;;15.70;3.88;;;;;;;;;;5053299;28;20182;-48
2023/02/01 03:38:18;;;;;;;13.70;3.75;;;;;;;;;;5053470;28;20214;-47
2023/02/01 03:40:47;;;;;;;12.27;3.53;;;;;;;;;;5053387;28;20385;-48
2023/02/01 03:43:16;;;;;;;14.43;4.53;;;;;;;;;;5053389;28;20642;-46
2023/02/01 03:45:44;;;;;;;10.68;4.25;;;;;;;;;;5053155;28;20198;-46
2023/02/01 03:48:11;;;;;;;14.30;4.20;;;;;;;;;;5053399;28;20186;-47
2023/02/01 03:50:39;;;;;;;10.70;4.00;;;;;;;;;;5053044;28;20290;-48
2023/02/01 03:53:10;;;;;;;5.05;2.90;;;;;;;;;;5053125;28;20171;-46
2023/02/01 03:55:37;;;;;;;7.13;3.55;;;;;;;;;;5053016;28;20225;-46
2023/02/01 03:58:16;;;;;;;11.88;4.55;;;;;;;;;;5053006;28;20179;-48
2023/02/01 04:00:54;;;;;;;12.90;4.10;;;;;;;;;;5053032;28;20167;-46
2023/02/01 04:03:21;;;;;;;15.27;5.32;;;;;;;;;;5052963;28;20170;-47
2023/02/01 04:05:47;;;;;;;10.23;3.10;;;;;;;;;;5052717;28;20182;-46
2023/02/01 04:08:13;;;;;;;11.10;4.77;;;;;;;;;;5052910;28;20183;-45
2023/02/01 04:10:39;;;;;;;11.63;4.50;;;;;;;;;;5052802;28;20456;-47
2023/02/01 04:13:06;;;;;;;8.32;3.70;;;;;;;;;;5053161;28;20433;-48
2023/02/01 04:15:34;;;;;;;13.07;3.70;;;;;;;;;;5052262;28;20225;-47
2023/02/01 04:18:00;;;;;;;15.27;4.18;;;;;;;;;;5052795;28;20163;-45
2023/02/01 04:20:26;;;;;;;11.10;3.70;;;;;;;;;;5052863;28;20639;-48
2023/02/01 04:22:52;;;;;;;14.20;4.18;;;;;;;;;;5052617;28;20914;-49
2023/02/01 04:25:17;;;;;;;8.23;3.37;;;;;;;;;;5052425;28;20627;-48
2023/02/01 04:27:44;;;;;;;19.63;4.50;;;;;;;;;;5053006;28;20409;-46
2023/02/01 04:30:10;;;;;;;12.38;4.13;;;;;;;;;;5052371;28;20464;-46
2023/02/01 04:32:37;;;;;;;13.32;4.07;;;;;;;;;;5052113;28;20516;-46
2023/02/01 04:35:03;;;;;;;13.45;4.30;;;;;;;;;;5051969;28;20225;-46
2023/02/01 04:37:29;;;;;;;13.50;3.60;;;;;;;;;;5052361;28;20170;-46
2023/02/01 04:39:55;;;;;;;16.30;4.88;;;;;;;;;;5052302;28;20661;-45
2023/02/01 04:42:21;;;;;;;13.43;4.80;;;;;;;;;;5052326;28;20171;-47
2023/02/01 04:44:47;;;;;;;10.90;3.10;;;;;;;;;;5052013;28;20198;-48
2023/02/01 04:47:14;;;;;;;13.77;4.43;;;;;;;;;;5052012;28;20663;-46
2023/02/01 04:49:40;;;;;;;11.50;5.05;;;;;;;;;;5052070;28;20520;-46
2023/02/01 04:52:06;;;;;;;19.37;4.57;;;;;;;;;;5052032;28;20250;-45
2023/02/01 04:54:32;;;;;;;12.30;3.45;;;;;;;;;;5051917;28;20406;-46
2023/02/01 04:56:58;;;;;;;7.50;3.47;;;;;;;;;;5051913;28;20236;-46
2023/02/01 04:59:24;;;;;;;16.17;4.83;;;;;;;;;;5052025;28;20402;-48
2023/02/01 05:01:50;;;;;;;6.30;2.97;;;;;;;;;;5051806;28;20893;-46
2023/02/01 05:04:18;;;;;;;17.50;5.00;;;;;;;;;;5051778;28;20484;-46
2023/02/01 05:06:44;;;;;;;17.98;4.43;;;;;;;;;;5051997;28;20836;-46
2023/02/01 05:09:10;;;;;;;17.33;5.25;;;;;;;;;;5051718;28;20718;-47
2023/02/01 05:14:20;;;;;;;27.88;5.22;;;;;;;;;;5051925;28;20509;-46
2023/02/01 05:16:46;;;;;;;16.33;4.30;;;;;;;;;;5051657;28;20285;-46
2023/02/01 05:19:12;;;;;;;12.88;4.05;;;;;;;;;;5051689;28;20459;-46
2023/02/01 05:21:38;;;;;;;23.27;5.33;;;;;;;;;;5051583;28;20163;-46
2023/02/01 05:24:12;;;;;;;11.03;4.07;;;;;;;;;;5051508;28;20815;-46
2023/02/01 05:26:39;;;;;;;11.38;3.92;;;;;;;;;;5051043;28;20445;-47
2023/02/01 05:29:05;;;;;;;9.02;4.28;;;;;;;;;;5051269;28;20185;-46
2023/02/01 05:31:31;;;;;;;15.55;3.78;;;;;;;;;;5051310;28;20202;-46
2023/02/01 05:33:57;;;;;;;17.13;4.00;;;;;;;;;;5051416;28;20343;-46
2023/02/01 05:36:23;;;;;;;15.03;4.80;;;;;;;;;;5051298;28;20572;-46
2023/02/01 05:38:49;;;;;;;19.30;4.00;;;;;;;;;;5051392;28;20451;-46
2023/02/01 05:41:15;;;;;;;8.00;2.80;;;;;;;;;;5051386;28;20171;-46
2023/02/01 05:43:41;;;;;;;5.83;3.30;;;;;;;;;;5033210;28;20457;-46
2023/02/01 05:46:10;;;;;;;10.77;3.50;;;;;;;;;;5051653;28;20429;-46
2023/02/01 05:48:36;;;;;;;16.65;3.53;;;;;;;;;;5051337;28;20459;-47
2023/02/01 05:51:02;;;;;;;22.33;4.17;;;;;;;;;;5051795;28;20568;-46
2023/02/01 05:53:28;;;;;;;8.77;3.80;;;;;;;;;;5051231;28;20390;-46
2023/02/01 05:55:54;;;;;;;12.90;4.30;;;;;;;;;;5050993;28;20418;-45
2023/02/01 05:58:20;;;;;;;12.63;3.73;;;;;;;;;;5050884;28;20508;-46
2023/02/01 06:00:46;;;;;;;15.90;4.20;;;;;;;;;;5051241;28;20398;-47
2023/02/01 06:03:12;;;;;;;19.73;3.90;;;;;;;;;;5051249;28;20480;-46
2023/02/01 06:05:37;;;;;;;13.43;4.17;;;;;;;;;;5050847;28;20432;-47
2023/02/01 06:08:03;;;;;;;9.93;2.80;;;;;;;;;;5051734;28;20437;-48
2023/02/01 06:10:29;;;;;;;11.55;3.63;;;;;;;;;;5050874;28;20794;-46
2023/02/01 06:12:55;;;;;;;10.00;4.37;;;;;;;;;;5051107;28;20266;-46
2023/02/01 06:15:21;;;;;;;14.93;3.77;;;;;;;;;;5049928;28;20421;-46
2023/02/01 06:17:47;;;;;;;11.03;3.40;;;;;;;;;;5049150;28;20426;-46
2023/02/01 06:20:14;;;;;;;18.65;3.90;;;;;;;;;;5050312;28;20471;-46
2023/02/01 06:22:40;;;;;;;11.98;3.67;;;;;;;;;;5047599;28;20186;-46
2023/02/01 06:25:08;;;;;;;11.50;3.55;;;;;;;;;;5049872;28;20178;-46
2023/02/01 06:27:34;;;;;;;15.30;4.25;;;;;;;;;;5044311;28;20196;-46
2023/02/01 06:30:00;;;;;;;13.98;4.03;;;;;;;;;;5042507;28;20191;-47
2023/02/01 06:32:26;;;;;;;15.30;4.47;;;;;;;;;;5044195;28;20184;-48
2023/02/01 06:34:52;;;;;;;13.37;4.40;;;;;;;;;;5047181;28;20484;-46
2023/02/01 06:37:18;;;;;;;19.58;3.92;;;;;;;;;;5045119;28;20786;-48
2023/02/01 06:39:44;;;;;;;8.90;3.38;;;;;;;;;;5046273;28;20568;-46
2023/02/01 06:42:10;;;;;;;14.57;4.37;;;;;;;;;;5044860;28;20175;-46
2023/02/01 06:44:36;;;;;;;18.10;3.75;;;;;;;;;;5052984;28;20409;-48
2023/02/01 06:47:04;;;;;;;18.47;3.80;;;;;;;;;;5044677;28;20537;-48
2023/02/01 06:49:29;;;;;;;23.45;4.25;;;;;;;;;;5053191;28;20420;-46
2023/02/01 06:51:55;;;;;;;17.13;4.37;;;;;;;;;;5051858;28;20198;-45
2023/02/01 06:54:21;;;;;;;13.68;4.05;;;;;;;;;;5047859;28;20621;-46
2023/02/01 06:56:47;;;;;;;19.67;3.80;;;;;;;;;;5045783;28;20190;-46
2023/02/01 06:59:14;;;;;;;28.30;4.93;;;;;;;;;;5045637;28;20524;-46
2023/02/01 07:01:40;;;;;;;11.75;3.97;;;;;;;;;;5046062;28;20504;-47
2023/02/01 07:04:06;;;;;;;26.60;5.20;;;;;;;;;;5045411;28;20727;-45
2023/02/01 07:06:31;;;;;;;8.73;3.70;;;;;;;;;;5046804;28;20208;-46
2023/02/01 07:08:57;;;;;;;16.50;5.33;;;;;;;;;;5052131;28;20452;-48
2023/02/01 07:11:24;;;;;;;14.05;4.07;;;;;;;;;;5053568;28;20505;-46
2023/02/01 07:13:50;;;;;;;11.32;4.35;;;;;;;;;;5049482;28;20186;-46
2023/02/01 07:16:17;;;;;;;6.07;3.45;;;;;;;;;;5053414;28;20240;-46
2023/02/01 07:18:43;;;;;;;9.80;4.38;;;;;;;;;;5045552;28;20182;-46
2023/02/01 07:21:09;;;;;;;8.70;4.40;;;;;;;;;;5045299;28;20179;-48
2023/02/01 07:23:35;;;;;;;13.33;5.50;;;;;;;;;;5045702;28;20185;-47
2023/02/01 07:26:04;;;;;;;12.23;4.50;;;;;;;;;;5049712;28;20438;-47
2023/02/01 07:28:31;;;;;;;19.70;4.80;;;;;;;;;;5042118;28;20219;-48
2023/02/01 07:31:15;;;;;;;18.27;4.43;;;;;;;;;;5052355;28;20686;-46
2023/02/01 07:33:41;;;;;;;16.00;4.90;;;;;;;;;;5053586;28;20504;-46
2023/02/01 07:36:08;;;;;;;22.60;4.25;;;;;;;;;;5053126;28;20701;-46
2023/02/01 07:38:34;;;;;;;12.68;4.90;;;;;;;;;;5053890;28;20163;-47
2023/02/01 07:41:00;;;;;;;17.37;5.03;;;;;;;;;;5053504;28;20674;-47
2023/02/01 07:43:27;;;;;;;14.35;4.88;;;;;;;;;;5053393;28;20401;-46
2023/02/01 07:45:53;;;;;;;17.70;4.13;;;;;;;;;;5048747;28;20562;-48
2023/02/01 07:48:20;;;;;;;22.38;4.80;;;;;;;;;;5053158;28;20562;-48
2023/02/01 07:50:46;;;;;;;8.20;3.90;;;;;;;;;;5049243;28;20230;-48
2023/02/01 07:53:12;;;;;;;19.33;4.53;;;;;;;;;;5050677;28;20635;-46
2023/02/01 07:55:38;;;;;;;17.92;4.25;;;;;;;;;;5033395;28;20245;-46
2023/02/01 07:58:04;;;;;;;8.70;3.72;;;;;;;;;;5038660;28;20729;-48
2023/02/01 08:03:15;;;;;;;21.77;6.38;;;;;;;;;;5041657;28;20416;-47
2023/02/01 08:05:41;;;;;;;15.83;4.90;;;;;;;;;;5051915;28;20203;-42
2023/02/01 08:08:07;;;;;;;18.87;5.20;;;;;;;;;;5041136;28;20415;-42
2023/02/01 08:10:34;;;;;;;13.82;4.75;;;;;;;;;;5049018;28;20872;-45
2023/02/01 08:13:00;;;;;;;9.95;4.53;;;;;;;;;;5044823;28;20159;-44
2023/02/01 08:15:27;;;;;;;16.70;5.30;;;;;;;;;;5048081;28;20198;-44
2023/02/01 08:17:54;;;;;;;22.30;5.10;;;;;;;;;;5044170;28;20790;-45
2023/02/01 08:20:22;;;;;;;20.35;5.43;;;;;;;;;;5052407;28;20179;-45
2023/02/01 08:22:48;;;;;;;12.55;5.22;;;;;;;;;;5044278;28;20337;-44
2023/02/01 08:25:14;;;;;;;21.83;4.70;;;;;;;;;;5047178;28;20290;-45
2023/02/01 08:27:40;;;;;;;7.67;5.07;;;;;;;;;;5048841;28;20413;-44
2023/02/01 08:30:09;;;;;;;11.57;4.03;;;;;;;;;;5044233;28;21003;-44
2023/02/01 08:32:36;;;;;;;14.32;4.63;;;;;;;;;;5044185;28;20975;-44
2023/02/01 08:35:02;;;;;;;15.63;5.80;;;;;;;;;;5046709;28;20171;-44
2023/02/01 08:37:28;;;;;;;14.30;5.00;;;;;;;;;;5044313;28;20177;-44
2023/02/01 08:39:54;;;;;;;14.17;5.53;;;;;;;;;;5046210;28;20250;-45
2023/02/01 08:45:05;;;;;;;16.13;5.30;;;;;;;;;;5043454;28;20408;-44
2023/02/01 08:47:31;;;;;;;17.48;5.05;;;;;;;;;;5052047;28;20175;-44
2023/02/01 08:49:57;;;;;;;13.15;4.93;;;;;;;;;;5040978;28;20278;-44
2023/02/01 08:52:23;;;;;;;18.40;5.90;;;;;;;;;;5046609;28;20618;-46
2023/02/01 08:54:49;;;;;;;8.77;4.47;;;;;;;;;;5049563;28;20397;-45
2023/02/01 08:57:15;;;;;;;25.30;5.97;;;;;;;;;;5043258;28;20213;-45
2023/02/01 08:59:43;;;;;;;28.83;5.55;;;;;;;;;;5044905;28;20963;-45
2023/02/01 09:02:12;;;;;;;12.75;5.47;;;;;;;;;;5051919;28;20594;-45
2023/02/01 09:04:38;;;;;;;13.80;6.50;;;;;;;;;;5051665;28;20171;-45
2023/02/01 09:07:04;;;;;;;13.30;3.97;;;;;;;;;;5051834;28;20190;-45
2023/02/01 09:09:30;;;;;;;27.57;5.70;;;;;;;;;;5051748;28;20973;-45
2023/02/01 09:11:56;;;;;;;18.00;4.83;;;;;;;;;;5051330;28;20457;-45
2023/02/01 09:14:22;;;;;;;16.10;5.50;;;;;;;;;;5051825;28;20462;-44
2023/02/01 09:16:48;;;;;;;15.60;5.17;;;;;;;;;;5051583;28;20433;-45
2023/02/01 09:19:14;;;;;;;21.80;5.77;;;;;;;;;;5051808;28;20413;-45
2023/02/01 09:21:40;;;;;;;18.17;5.20;;;;;;;;;;5051604;28;20409;-45
2023/02/01 09:24:06;;;;;;;11.30;4.70;;;;;;;;;;5051492;28;20544;-45
2023/02/01 09:26:33;;;;;;;12.65;5.25;;;;;;;;;;5051699;28;20917;-45
2023/02/01 09:28:59;;;;;;;11.00;5.05;;;;;;;;;;5051742;28;20250;-44
2023/02/01 09:31:25;;;;;;;23.02;6.68;;;;;;;;;;5051399;28;20204;-45
2023/02/01 09:33:51;;;;;;;26.03;4.87;;;;;;;;;;5050857;28;20168;-45
2023/02/01 09:36:19;;;;;;;17.07;6.10;;;;;;;;;;5051144;28;20433;-45
2023/02/01 09:38:45;;;;;;;17.58;5.43;;;;;;;;;;5051533;28;20421;-44
2023/02/01 09:41:30;;;;;;;16.77;5.80;;;;;;;;;;5051131;28;20206;-45
2023/02/01 09:44:04;;;;;;;22.60;5.68;;;;;;;;;;5051590;28;20202;-45
2023/02/01 09:46:32;;;;;;;15.32;7.13;;;;;;;;;;5051176;28;20202;-42
2023/02/01 09:49:01;;;;;;;24.73;6.43;;;;;;;;;;5033564;28;20175;-42
2023/02/01 09:51:35;;;;;;;12.07;5.20;;;;;;;;;;5050992;28;20198;-44
2023/02/01 09:54:07;;;;;;;16.48;5.20;;;;;;;;;;5051305;28;20255;-43
2023/02/01 09:56:35;;;;;;;13.77;5.22;;;;;;;;;;5051109;28;20256;-42
2023/02/01 09:59:07;;;;;;;19.77;5.70;;;;;;;;;;5051517;28;20183;-45
2023/02/01 10:01:34;;;;;;;21.38;6.43;;;;;;;;;;5051230;28;20609;-42
2023/02/01 10:04:03;;;;;;;27.58;6.63;;;;;;;;;;5051162;28;20163;-45
2023/02/01 10:06:50;;;;;;;20.70;6.05;;;;;;;;;;5050972;28;20195;-42
2023/02/01 10:09:41;;;;;;;25.58;7.70;;;;;;;;;;5051281;28;20257;-46
2023/02/01 10:12:22;;;;;;;20.75;6.65;;;;;;;;;;5051059;28;20183;-48
2023/02/01 10:14:48;;;;;;;15.70;6.23;;;;;;;;;;5053425;28;20207;-46
2023/02/01 10:17:20;;;;;;;16.80;6.20;;;;;;;;;;5054505;28;20469;-46
2023/02/01 10:19:57;;;;;;;21.00;6.38;;;;;;;;;;5054773;28;20443;-44
2023/02/01 10:22:44;;;;;;;13.83;6.00;;;;;;;;;;5054617;28;20179;-44
2023/02/01 10:25:10;;;;;;;14.67;5.57;;;;;;;;;;5054486;28;20405;-44
2023/02/01 10:27:37;;;;;;;15.30;5.13;;;;;;;;;;5054691;28;20466;-44
2023/02/01 10:30:19;;;;;;;10.40;5.67;;;;;;;;;;5053916;28;20457;-44
2023/02/01 10:32:45;;;;;;;9.17;5.20;;;;;;;;;;5038413;28;20463;-43
2023/02/01 10:35:19;;;;;;;17.20;7.03;;;;;;;;;;5054380;28;20829;-44
2023/02/01 10:37:46;;;;;;;13.00;6.20;;;;;;;;;;5054377;28;20768;-44
2023/02/01 10:40:12;;;;;;;14.13;6.20;;;;;;;;;;5054302;28;20540;-44
2023/02/01 10:42:39;;;;;;;14.57;5.77;;;;;;;;;;5054389;28;20496;-44
2023/02/01 10:45:06;;;;;;;22.80;6.05;;;;;;;;;;5036558;28;20418;-43
2023/02/01 10:47:32;;;;;;;17.00;5.65;;;;;;;;;;5054172;28;20179;-44
2023/02/01 10:49:58;;;;;;;17.40;5.60;;;;;;;;;;5054515;28;20166;-44
2023/02/01 10:52:42;;;;;;;17.70;7.77;;;;;;;;;;5053923;28;20420;-44
2023/02/01 10:55:26;;;;;;;11.50;6.03;;;;;;;;;;5054936;28;20477;-42
2023/02/01 10:57:59;;;;;;;14.32;6.05;;;;;;;;;;5034669;28;20184;-46
2023/02/01 11:00:25;;;;;;;15.38;5.95;;;;;;;;;;5037989;28;20172;-46
2023/02/01 11:02:52;;;;;;;22.88;6.05;;;;;;;;;;5054521;28;20171;-45
2023/02/01 11:05:18;;;;;;;13.20;5.25;;;;;;;;;;5052848;28;20678;-45
2023/02/01 11:07:54;;;;;;;20.30;6.72;;;;;;;;;;5033985;28;20214;-44
2023/02/01 11:10:40;;;;;;;21.45;6.45;;;;;;;;;;5034173;28;20195;-44
2023/02/01 11:13:12;;;;;;;11.52;5.47;;;;;;;;;;5034228;28;20167;-44
2023/02/01 11:15:38;;;;;;;14.20;7.05;;;;;;;;;;5036074;28;20242;-45
2023/02/01 11:18:18;;;;;;;12.30;6.07;;;;;;;;;;5054061;28;20170;-44
2023/02/01 11:20:45;;;;;;;19.83;5.82;;;;;;;;;;5053845;28;20413;-45
2023/02/01 11:23:15;;;;;;;23.25;5.68;;;;;;;;;;5035884;28;20182;-44
2023/02/01 11:25:48;;;;;;;10.63;4.93;;;;;;;;;;5052329;28;20199;-44
2023/02/01 11:28:15;;;;;;;15.68;5.70;;;;;;;;;;5053826;28;20209;-44
2023/02/01 11:30:43;;;;;;;8.43;5.30;;;;;;;;;;5053280;28;20200;-44
2023/02/01 11:33:13;;;;;;;17.80;5.17;;;;;;;;;;5053690;28;20394;-44
2023/02/01 11:35:42;;;;;;;15.10;5.70;;;;;;;;;;5057307;28;20416;-44
2023/02/01 11:38:14;;;;;;;11.25;5.85;;;;;;;;;;5054685;28;20390;-46
2023/02/01 11:40:40;;;;;;;14.70;5.93;;;;;;;;;;5053273;28;20169;-42
2023/02/01 11:43:14;;;;;;;14.07;4.50;;;;;;;;;;5053364;28;20456;-42
2023/02/01 11:45:40;;;;;;;14.50;4.80;;;;;;;;;;5052979;28;20425;-42
2023/02/01 11:48:10;;;;;;;14.60;5.47;;;;;;;;;;5053155;28;20402;-44
2023/02/01 11:50:43;;;;;;;16.03;5.67;;;;;;;;;;5053002;28;20519;-43
2023/02/01 11:53:28;;;;;;;15.53;4.80;;;;;;;;;;5033239;28;20401;-42
2023/02/01 11:55:57;;;;;;;18.10;5.07;;;;;;;;;;5042791;28;20937;-43
2023/02/01 11:58:22;;;;;;;17.33;6.73;;;;;;;;;;5052438;28;20417;-42
2023/02/01 12:01:07;;;;;;;28.47;5.07;;;;;;;;;;5052760;28;20408;-44
2023/02/01 12:03:42;;;;;;;15.23;5.57;;;;;;;;;;5052904;28;20459;-42
2023/02/01 12:06:11;;;;;;;11.20;4.50;;;;;;;;;;5052779;28;20535;-42
2023/02/01 12:08:58;;;;;;;14.60;5.32;;;;;;;;;;5052898;28;20465;-46
2023/02/01 12:11:36;;;;;;;14.07;3.83;;;;;;;;;;5052849;28;20199;-42
2023/02/01 12:14:02;;;;;;;11.13;5.90;;;;;;;;;;5053136;28;20542;-42
2023/02/01 12:16:32;;;;;;;17.47;6.70;;;;;;;;;;5052634;28;20190;-42
2023/02/01 12:19:11;;;;;;;28.40;6.90;;;;;;;;;;5052620;28;20390;-46
2023/02/01 12:21:37;;;;;;;9.70;5.28;;;;;;;;;;5052290;28;20186;-42
2023/02/01 12:24:12;;;;;;;18.43;5.53;;;;;;;;;;5052427;28;20177;-42
2023/02/01 12:27:05;;;;;;;16.02;7.00;;;;;;;;;;5052509;28;20436;-41
2023/02/01 12:29:48;;;;;;;14.45;5.28;;;;;;;;;;5046285;28;20221;-44
2023/02/01 12:32:24;;;;;;;11.05;5.03;;;;;;;;;;5052292;28;20210;-42
2023/02/01 12:34:52;;;;;;;14.63;5.93;;;;;;;;;;5052176;28;20167;-42
2023/02/01 12:37:24;;;;;;;16.95;5.25;;;;;;;;;;5051871;28;20252;-43
2023/02/01 12:39:53;;;;;;;11.63;6.32;;;;;;;;;;5052189;28;20182;-45
2023/02/01 12:42:23;;;;;;;19.88;6.50;;;;;;;;;;5051966;28;20254;-44
2023/02/01 12:44:51;;;;;;;14.80;6.60;;;;;;;;;;5051956;28;20639;-45
2023/02/01 12:47:21;;;;;;;19.38;5.53;;;;;;;;;;5051670;28;20202;-44
2023/02/01 12:49:59;;;;;;;12.65;5.07;;;;;;;;;;5050209;28;20250;-44
2023/02/01 12:52:34;;;;;;;14.80;6.68;;;;;;;;;;5050595;28;20202;-44
2023/02/01 12:55:06;;;;;;;16.38;5.35;;;;;;;;;;5051775;28;20173;-44
2023/02/01 12:57:37;;;;;;;11.23;4.82;;;;;;;;;;5050703;28;20266;-45
2023/02/01 13:00:17;;;;;;;21.63;5.63;;;;;;;;;;5051672;28;20179;-44
2023/02/01 13:03:03;;;;;;;9.15;5.18;;;;;;;;;;5051539;28;20171;-45
2023/02/01 13:05:34;;;;;;;10.95;4.65;;;;;;;;;;5051577;28;20659;-44
2023/02/01 13:08:03;;;;;;;19.15;4.55;;;;;;;;;;5051936;28;20198;-44
2023/02/01 13:10:41;;;;;;;23.42;5.47;;;;;;;;;;5051879;28;20191;-44
2023/02/01 13:13:16;;;;;;;13.02;4.40;;;;;;;;;;5051917;28;20178;-44
2023/02/01 13:15:44;;;;;;;12.35;4.65;;;;;;;;;;5051524;28;20179;-44
2023/02/01 13:18:14;;;;;;;18.05;4.40;;;;;;;;;;5051752;28;20583;-44
2023/02/01 13:20:47;;;;;;;12.40;4.78;;;;;;;;;;5051860;28;20252;-44
2023/02/01 13:23:23;;;;;;;13.52;3.85;;;;;;;;;;5051764;28;20179;-44
2023/02/01 13:25:51;;;;;;;14.40;4.50;;;;;;;;;;5051595;28;20182;-44
2023/02/01 13:28:26;;;;;;;25.65;3.95;;;;;;;;;;5051573;28;20177;-44
2023/02/01 13:31:10;;;;;;;17.10;4.32;;;;;;;;;;5051660;28;20303;-44
2023/02/01 13:33:39;;;;;;;10.05;3.97;;;;;;;;;;5051683;28;20658;-44
2023/02/01 13:36:27;;;;;;;19.75;4.93;;;;;;;;;;5051392;28;20190;-44
2023/02/01 13:39:12;;;;;;;13.07;4.10;;;;;;;;;;5051710;28;20169;-44
2023/02/01 13:41:53;;;;;;;10.27;4.03;;;;;;;;;;5051500;28;20170;-44
2023/02/01 13:44:26;;;;;;;19.08;3.63;;;;;;;;;;5051352;28;20642;-44
2023/02/01 13:46:55;;;;;;;14.27;4.30;;;;;;;;;;5051182;28;20195;-44
2023/02/01 13:49:23;;;;;;;9.70;4.15;;;;;;;;;;5050778;28;20231;-44
2023/02/01 13:51:51;;;;;;;11.37;3.33;;;;;;;;;;5051261;28;20199;-44
2023/02/01 13:54:44;;;;;;;11.40;3.23;;;;;;;;;;5051283;28;20490;-44
2023/02/01 13:57:34;;;;;;;24.40;3.60;;;;;;;;;;5032859;28;20961;-44
2023/02/01 14:00:19;;;;;;;9.60;2.92;;;;;;;;;;5051387;28;20171;-44
2023/02/01 14:03:02;;;;;;;13.40;3.43;;;;;;;;;;5051295;28;20696;-44
2023/02/01 14:05:32;;;;;;;19.33;3.88;;;;;;;;;;5050836;28;20424;-44
2023/02/01 14:08:10;;;;;;;12.52;3.38;;;;;;;;;;5051315;28;20171;-45
2023/02/01 14:10:45;;;;;;;11.10;3.10;;;;;;;;;;5051194;28;20203;-44
2023/02/01 14:13:34;;;;;;;15.02;3.42;;;;;;;;;;5051137;28;20401;-44
2023/02/01 14:16:03;;;;;;;8.18;2.83;;;;;;;;;;5049646;28;20183;-45
2023/02/01 14:18:49;;;;;;;24.85;3.58;;;;;;;;;;5050353;28;20237;-44
2023/02/01 14:21:15;;;;;;;11.25;3.58;;;;;;;;;;5050006;28;20191;-46
2023/02/01 14:23:46;;;;;;;11.03;2.67;;;;;;;;;;5050403;28;20186;-45
2023/02/01 14:26:17;;;;;;;11.70;3.35;;;;;;;;;;5050574;28;20784;-44
2023/02/01 14:28:45;;;;;;;16.42;3.53;;;;;;;;;;5049985;28;20650;-44
2023/02/01 14:31:16;;;;;;;11.90;4.43;;;;;;;;;;5050582;28;20195;-44
2023/02/01 14:33:43;;;;;;;8.98;3.45;;;;;;;;;;5050458;28;20183;-44
2023/02/01 14:36:11;;;;;;;12.93;3.10;;;;;;;;;;5050498;28;20377;-44
2023/02/01 14:38:38;;;;;;;12.73;2.93;;;;;;;;;;5050628;28;20461;-44
2023/02/01 14:41:33;;;;;;;6.50;2.43;;;;;;;;;;5049293;28;20793;-43
2023/02/01 14:43:58;;;;;;;9.63;3.67;;;;;;;;;;5013630;28;20995;-42
2023/02/01 14:47:03;;;;;;;10.60;3.53;;;;;;;;;;5030521;28;20423;-42
2023/02/01 14:49:33;;;;;;;14.43;3.50;;;;;;;;;;5030985;28;20737;-41
2023/02/01 14:51:59;;;;;;;16.30;3.97;;;;;;;;;;5031975;28;20207;-42
2023/02/01 14:54:26;;;;;;;11.07;3.60;;;;;;;;;;5050703;28;20485;-42
2023/02/01 14:56:53;;;;;;;10.80;4.20;;;;;;;;;;5050542;28;20491;-43
2023/02/01 14:59:22;;;;;;;10.43;3.07;;;;;;;;;;5051604;28;20436;-43
2023/02/01 15:01:52;;;;;;;9.23;3.20;;;;;;;;;;5054289;28;20403;-45
2023/02/01 15:04:21;;;;;;;9.03;3.30;;;;;;;;;;5054119;28;20419;-42
2023/02/01 15:06:51;;;;;;;15.00;3.63;;;;;;;;;;5054276;28;20429;-46
2023/02/01 15:09:29;;;;;;;9.53;3.80;;;;;;;;;;5054095;28;20952;-46
2023/02/01 15:11:58;;;;;;;15.90;4.65;;;;;;;;;;5053007;28;20499;-46
2023/02/01 15:14:24;;;;;;;15.43;4.47;;;;;;;;;;5053993;28;20208;-42